Webcams

Webcam1&2         Webcam1 (Zeitraffer 2 Std.)        Webcam2 (Zeitraffer 2 Std.)

Webcam2 - Zeitraffer (die letzten zwei Stunden, Intervall: 10min)
cam2--20180120_192958M
cam2--20180120_193959M
cam2--20180120_194958M
cam2--20180120_195958M
cam2--20180120_200958M
cam2--20180120_201959M
cam2--20180120_202959M
cam2--20180120_203959M
cam2--20180120_204959M
cam2--20180120_205959M
cam2--20180120_210959M
cam2--20180120_211957M
cam2--20180120_212957M
01/13 
start stop bwd fwd

Webcam2 - Aktuell

Lokale Serverzeit 21:30 | 20.01.2018
Webcam-Lageplan

Flugwetter

[source: ADDS]
METAR
LOWL 210220Z AUTO VRB01KT 1600 R08/P1500N -SN FEW003 SCT006 BKN009 00/M00 Q0999 =
TAF
TAF LOWL 202315Z 2100/2124 25006KT 5000 -SN SCT007 BKN017 TX00/2114Z TNM01/2200Z TEMPO 2100/2108 29012KT 2000 SN BKN014 PROB30 TEMPO 2101/2105 0600 SN VV006 TEMPO 2108/2115 28015G25KT 8000 -SNRA SCT015 BKN035 TEMPO 2115/2124 4000 -SHSN =